createdAt,value
2023-10-15T00:01:27.706Z,22.29
2023-10-15T00:03:54.213Z,22.15
2023-10-15T00:06:20.502Z,22.24
2023-10-15T00:08:46.760Z,22.19
2023-10-15T00:11:13.174Z,22.15
2023-10-15T00:13:39.430Z,22.17
2023-10-15T00:16:05.881Z,22.22
2023-10-15T00:18:32.373Z,22.26
2023-10-15T00:20:58.898Z,22.11
2023-10-15T00:23:25.182Z,22.23
2023-10-15T00:25:51.474Z,22.28
2023-10-15T00:28:17.854Z,22.26
2023-10-15T00:30:44.509Z,22.25
2023-10-15T00:33:10.875Z,22.21
2023-10-15T00:35:37.313Z,22.13
2023-10-15T00:38:03.705Z,22.21
2023-10-15T00:40:30.053Z,22.27
2023-10-15T00:42:56.310Z,22.11
2023-10-15T00:45:22.974Z,22.27
2023-10-15T00:47:49.248Z,22.22
2023-10-15T00:50:15.655Z,22.19
2023-10-15T00:52:41.949Z,22.12
2023-10-15T00:55:08.226Z,22.18
2023-10-15T00:57:34.696Z,22.15
2023-10-15T01:00:00.993Z,22.18
2023-10-15T01:02:27.434Z,21.92
2023-10-15T01:04:53.796Z,21.89
2023-10-15T01:07:20.175Z,22.09
2023-10-15T01:09:46.589Z,22.01
2023-10-15T01:12:12.856Z,21.90
2023-10-15T01:14:39.140Z,21.97
2023-10-15T01:17:05.501Z,21.99
2023-10-15T01:19:32.061Z,21.94
2023-10-15T01:21:58.317Z,21.92
2023-10-15T01:24:25.188Z,22.00
2023-10-15T01:26:51.554Z,22.01
2023-10-15T01:29:17.821Z,21.83
2023-10-15T01:31:44.183Z,21.78
2023-10-15T01:34:10.459Z,21.97
2023-10-15T01:36:36.852Z,21.93
2023-10-15T01:39:03.310Z,21.75
2023-10-15T01:41:29.769Z,21.86
2023-10-15T01:43:56.045Z,21.99
2023-10-15T01:46:22.536Z,21.86
2023-10-15T01:48:48.990Z,22.00
2023-10-15T01:51:15.337Z,21.92
2023-10-15T01:53:41.589Z,21.88
2023-10-15T01:56:07.885Z,21.83
2023-10-15T01:58:34.438Z,21.78
2023-10-15T02:01:00.773Z,21.77
2023-10-15T02:03:27.148Z,21.71
2023-10-15T02:05:53.455Z,21.82
2023-10-15T02:08:19.744Z,21.81
2023-10-15T02:10:46.262Z,21.93
2023-10-15T02:13:12.699Z,21.84
2023-10-15T02:15:38.953Z,21.80
2023-10-15T02:18:05.426Z,21.89
2023-10-15T02:20:38.863Z,21.75
2023-10-15T02:23:05.126Z,21.69
2023-10-15T02:25:31.383Z,21.84
2023-10-15T02:27:57.677Z,21.73
2023-10-15T02:30:23.934Z,21.86
2023-10-15T02:32:50.226Z,21.86
2023-10-15T02:35:16.590Z,21.70
2023-10-15T02:37:42.924Z,21.75
2023-10-15T02:40:09.257Z,21.71
2023-10-15T02:42:35.554Z,21.68
2023-10-15T02:45:01.872Z,21.67
2023-10-15T02:47:28.260Z,21.69
2023-10-15T02:49:54.710Z,21.72
2023-10-15T02:52:21.198Z,21.80
2023-10-15T02:54:47.633Z,21.77
2023-10-15T02:57:14.134Z,21.81
2023-10-15T02:59:40.398Z,21.69
2023-10-15T03:02:06.978Z,21.47
2023-10-15T03:04:33.304Z,21.66
2023-10-15T03:06:59.586Z,21.66
2023-10-15T03:09:25.853Z,21.66
2023-10-15T03:11:52.111Z,21.51
2023-10-15T03:14:18.352Z,21.50
2023-10-15T03:16:44.745Z,21.73
2023-10-15T03:19:11.100Z,21.58
2023-10-15T03:21:37.426Z,21.47
2023-10-15T03:24:03.687Z,21.69
2023-10-15T03:26:30.135Z,21.59
2023-10-15T03:28:56.409Z,21.68
2023-10-15T03:31:22.926Z,21.58
2023-10-15T03:33:49.305Z,21.61
2023-10-15T03:36:15.607Z,21.68
2023-10-15T03:38:41.856Z,21.69
2023-10-15T03:41:08.258Z,21.68
2023-10-15T03:43:34.524Z,21.60
2023-10-15T03:46:00.877Z,21.63
2023-10-15T03:48:27.277Z,21.60
2023-10-15T03:50:53.637Z,21.51
2023-10-15T03:53:19.902Z,21.52
2023-10-15T03:55:46.374Z,21.43
2023-10-15T03:58:12.649Z,21.57
2023-10-15T04:00:38.904Z,21.58
2023-10-15T04:03:14.541Z,21.60
2023-10-15T04:05:40.841Z,21.51
2023-10-15T04:08:07.124Z,21.62
2023-10-15T04:10:35.841Z,21.57
2023-10-15T04:13:02.154Z,21.46
2023-10-15T04:15:28.419Z,21.43
2023-10-15T04:17:54.792Z,21.52
2023-10-15T04:20:21.166Z,21.55
2023-10-15T04:22:47.700Z,21.50
2023-10-15T04:25:14.076Z,21.49
2023-10-15T04:27:40.468Z,21.38
2023-10-15T04:30:06.813Z,21.45
2023-10-15T04:32:33.366Z,21.42
2023-10-15T04:34:59.756Z,21.31
2023-10-15T04:37:26.237Z,21.47
2023-10-15T04:39:58.708Z,21.44
2023-10-15T04:42:37.618Z,21.44
2023-10-15T04:45:04.099Z,21.40
2023-10-15T04:47:30.591Z,21.43
2023-10-15T04:49:57.130Z,21.42
2023-10-15T04:52:23.397Z,21.43
2023-10-15T04:54:49.667Z,21.36
2023-10-15T04:57:16.010Z,21.40
2023-10-15T04:59:42.451Z,21.34
2023-10-15T05:02:08.746Z,21.41
2023-10-15T05:04:35.188Z,21.36
2023-10-15T05:07:01.447Z,21.16
2023-10-15T05:09:27.853Z,21.27
2023-10-15T05:11:54.321Z,21.27
2023-10-15T05:14:20.573Z,21.30
2023-10-15T05:16:47.094Z,21.39
2023-10-15T05:19:13.506Z,21.25
2023-10-15T05:21:39.939Z,21.31
2023-10-15T05:24:08.378Z,21.36
2023-10-15T05:26:34.629Z,21.40
2023-10-15T05:29:00.954Z,21.34
2023-10-15T05:31:27.435Z,21.35
2023-10-15T05:33:54.232Z,21.32
2023-10-15T05:36:20.534Z,21.29
2023-10-15T05:38:46.862Z,21.28
2023-10-15T05:41:13.245Z,21.37
2023-10-15T05:43:39.624Z,21.35
2023-10-15T05:46:05.973Z,21.30
2023-10-15T05:48:32.448Z,21.31
2023-10-15T05:50:58.755Z,21.30
2023-10-15T05:53:25.169Z,21.29
2023-10-15T05:55:51.566Z,21.31
2023-10-15T05:58:17.889Z,21.24
2023-10-15T06:00:44.314Z,21.19
2023-10-15T06:03:10.924Z,21.10
2023-10-15T06:05:37.290Z,21.14
2023-10-15T06:08:03.763Z,21.22
2023-10-15T06:10:30.150Z,21.23
2023-10-15T06:12:56.677Z,21.23
2023-10-15T06:15:25.057Z,21.22
2023-10-15T06:17:51.680Z,21.30
2023-10-15T06:20:18.120Z,21.38
2023-10-15T06:22:44.629Z,21.31
2023-10-15T06:25:11.170Z,21.34
2023-10-15T06:27:37.486Z,21.23
2023-10-15T06:30:03.984Z,21.29
2023-10-15T06:32:30.467Z,21.32
2023-10-15T06:34:56.943Z,21.32
2023-10-15T06:37:23.232Z,21.25
2023-10-15T06:39:49.482Z,21.35
2023-10-15T06:42:15.970Z,21.41
2023-10-15T06:44:42.227Z,21.33
2023-10-15T06:47:08.524Z,21.26
2023-10-15T06:49:35.060Z,21.33
2023-10-15T06:52:02.744Z,21.31
2023-10-15T06:54:28.995Z,21.27
2023-10-15T06:56:55.433Z,21.20
2023-10-15T06:59:21.896Z,21.31
2023-10-15T07:01:48.433Z,21.41
2023-10-15T07:04:14.776Z,21.43
2023-10-15T07:06:41.121Z,21.41
2023-10-15T07:09:07.375Z,21.39
2023-10-15T07:11:33.638Z,21.31
2023-10-15T07:13:59.924Z,21.35
2023-10-15T07:16:26.285Z,21.42
2023-10-15T07:18:52.714Z,21.39
2023-10-15T07:21:18.962Z,21.47
2023-10-15T07:23:45.618Z,21.42
2023-10-15T07:26:12.163Z,21.42
2023-10-15T07:28:38.496Z,21.34
2023-10-15T07:31:04.892Z,21.43
2023-10-15T07:33:32.879Z,21.46
2023-10-15T07:35:59.353Z,21.35
2023-10-15T07:38:25.727Z,21.35
2023-10-15T07:40:53.537Z,21.44
2023-10-15T07:43:21.662Z,21.29
2023-10-15T07:45:48.072Z,21.29
2023-10-15T07:48:17.444Z,21.40
2023-10-15T07:50:43.778Z,21.38
2023-10-15T07:53:10.250Z,21.34
2023-10-15T07:55:36.738Z,21.32
2023-10-15T07:58:03.320Z,21.38
2023-10-15T08:00:29.621Z,21.54
2023-10-15T08:02:56.434Z,21.47
2023-10-15T08:05:23.259Z,21.43
2023-10-15T08:07:49.691Z,21.40
2023-10-15T08:10:18.535Z,21.35
2023-10-15T08:12:44.986Z,21.43
2023-10-15T08:15:11.259Z,21.47
2023-10-15T08:17:37.609Z,21.48
2023-10-15T08:20:05.224Z,21.46
2023-10-15T08:22:31.892Z,21.40
2023-10-15T08:24:58.192Z,21.44
2023-10-15T08:27:24.613Z,21.45
2023-10-15T08:29:50.880Z,21.50
2023-10-15T08:32:17.261Z,21.50
2023-10-15T08:34:43.753Z,21.50
2023-10-15T08:37:10.019Z,21.48
2023-10-15T08:39:37.766Z,21.47
2023-10-15T08:42:04.151Z,21.49
2023-10-15T08:44:30.406Z,21.49
2023-10-15T08:46:56.911Z,21.43
2023-10-15T08:49:23.187Z,21.48
2023-10-15T08:51:49.437Z,21.55
2023-10-15T08:54:15.738Z,21.56
2023-10-15T08:56:42.248Z,21.58
2023-10-15T08:59:08.552Z,21.60
2023-10-15T09:01:34.927Z,21.65
2023-10-15T09:04:01.256Z,21.65
2023-10-15T09:06:27.667Z,21.61
2023-10-15T09:08:53.928Z,21.62
2023-10-15T09:11:20.269Z,21.68
2023-10-15T09:13:46.893Z,21.87
2023-10-15T09:16:13.357Z,21.87
2023-10-15T09:18:39.628Z,21.81
2023-10-15T09:21:06.029Z,21.83
2023-10-15T09:23:32.295Z,21.81
2023-10-15T09:25:58.764Z,21.93
2023-10-15T09:28:25.157Z,21.85
2023-10-15T09:30:51.679Z,21.81
2023-10-15T09:33:18.001Z,21.93
2023-10-15T09:35:44.629Z,21.80
2023-10-15T09:38:10.938Z,21.76
2023-10-15T09:40:37.371Z,21.79
2023-10-15T09:43:03.794Z,21.84
2023-10-15T09:45:30.064Z,21.74
2023-10-15T09:47:56.547Z,21.66
2023-10-15T09:50:23.324Z,21.74
2023-10-15T09:52:49.628Z,21.77
2023-10-15T09:55:15.988Z,21.77
2023-10-15T09:57:42.243Z,21.84
2023-10-15T10:00:11.055Z,21.70
2023-10-15T10:02:37.718Z,21.80
2023-10-15T10:05:04.330Z,21.81
2023-10-15T10:07:30.611Z,21.89
2023-10-15T10:09:56.977Z,21.85
2023-10-15T10:12:23.269Z,21.79
2023-10-15T10:14:49.557Z,21.92
2023-10-15T10:17:16.065Z,21.94
2023-10-15T10:19:42.700Z,22.01
2023-10-15T10:22:09.060Z,21.94
2023-10-15T10:24:35.571Z,21.97
2023-10-15T10:27:02.062Z,21.95
2023-10-15T10:29:28.564Z,21.93
2023-10-15T10:31:55.082Z,21.97
2023-10-15T10:34:21.497Z,22.13
2023-10-15T10:36:48.013Z,22.13
2023-10-15T10:39:14.303Z,22.06
2023-10-15T10:41:40.822Z,22.06
2023-10-15T10:44:19.109Z,22.03
2023-10-15T10:46:52.785Z,21.96
2023-10-15T10:49:19.083Z,22.05
2023-10-15T10:51:45.337Z,22.08
2023-10-15T10:54:11.696Z,22.13
2023-10-15T10:56:38.178Z,22.15
2023-10-15T10:59:04.676Z,22.18
2023-10-15T11:01:31.044Z,22.28
2023-10-15T11:04:06.945Z,22.28
2023-10-15T11:06:33.208Z,22.08
2023-10-15T11:08:59.456Z,22.11
2023-10-15T11:11:25.877Z,22.05
2023-10-15T11:13:52.385Z,22.01
2023-10-15T11:16:18.703Z,22.13
2023-10-15T11:18:45.029Z,22.19
2023-10-15T11:21:11.314Z,22.13
2023-10-15T11:23:37.995Z,22.12
2023-10-15T11:26:04.301Z,22.11
2023-10-15T11:28:30.624Z,22.10
2023-10-15T11:30:56.915Z,21.72
2023-10-15T11:33:23.384Z,22.19
2023-10-15T11:35:49.634Z,22.29
2023-10-15T11:38:16.117Z,22.32
2023-10-15T11:40:42.672Z,22.32
2023-10-15T11:43:08.982Z,22.31
2023-10-15T11:45:35.241Z,22.38
2023-10-15T11:48:01.596Z,22.47
2023-10-15T11:50:28.090Z,22.50
2023-10-15T11:52:54.393Z,22.55
2023-10-15T11:55:20.671Z,22.55
2023-10-15T11:57:47.202Z,22.65
2023-10-15T12:00:13.638Z,22.68
2023-10-15T12:02:39.913Z,22.69
2023-10-15T12:05:06.464Z,22.78
2023-10-15T12:07:32.826Z,22.84
2023-10-15T12:09:59.747Z,22.88
2023-10-15T12:12:26.249Z,22.93
2023-10-15T12:14:52.712Z,23.00
2023-10-15T12:17:18.997Z,23.02
2023-10-15T12:19:45.342Z,23.00
2023-10-15T12:22:14.193Z,23.08
2023-10-15T12:24:41.671Z,23.05
2023-10-15T12:27:07.996Z,23.11
2023-10-15T12:29:34.320Z,23.15
2023-10-15T12:32:00.726Z,23.09
2023-10-15T12:34:27.347Z,23.23
2023-10-15T12:36:53.688Z,23.27
2023-10-15T12:39:19.937Z,23.27
2023-10-15T12:41:46.395Z,23.30
2023-10-15T12:44:12.899Z,23.27
2023-10-15T12:46:39.398Z,23.25
2023-10-15T12:49:05.840Z,23.30
2023-10-15T12:51:32.097Z,23.26
2023-10-15T12:53:58.519Z,23.29
2023-10-15T12:56:24.991Z,23.31
2023-10-15T12:58:51.282Z,23.26
2023-10-15T13:01:17.735Z,23.35
2023-10-15T13:03:44.183Z,23.25
2023-10-15T13:06:10.485Z,23.32
2023-10-15T13:08:36.869Z,23.30
2023-10-15T13:11:05.154Z,23.36
2023-10-15T13:13:31.679Z,23.39
2023-10-15T13:16:00.619Z,23.39
2023-10-15T13:18:27.022Z,23.41
2023-10-15T13:20:53.439Z,23.29
2023-10-15T13:23:19.795Z,23.23
2023-10-15T13:25:46.102Z,23.37
2023-10-15T13:28:12.361Z,23.35
2023-10-15T13:30:41.508Z,23.28
2023-10-15T13:33:08.048Z,23.38
2023-10-15T13:35:34.494Z,23.43
2023-10-15T13:38:00.792Z,23.33
2023-10-15T13:40:27.058Z,23.42
2023-10-15T13:42:53.443Z,23.41
2023-10-15T13:45:19.878Z,23.43
2023-10-15T13:47:46.432Z,23.42
2023-10-15T13:50:12.764Z,23.53
2023-10-15T13:52:39.061Z,23.55
2023-10-15T13:55:05.535Z,23.51
2023-10-15T13:57:32.010Z,23.43
2023-10-15T13:59:58.298Z,23.44
2023-10-15T14:02:24.826Z,23.51
2023-10-15T14:04:51.393Z,23.48
2023-10-15T14:07:17.750Z,23.46
2023-10-15T14:09:44.019Z,23.54
2023-10-15T14:12:10.279Z,23.58
2023-10-15T14:14:36.543Z,23.48
2023-10-15T14:17:02.955Z,23.49
2023-10-15T14:19:29.296Z,23.39
2023-10-15T14:21:55.561Z,23.46
2023-10-15T14:24:21.834Z,23.43
2023-10-15T14:26:48.098Z,23.35
2023-10-15T14:29:16.745Z,23.43
2023-10-15T14:31:43.166Z,23.45
2023-10-15T14:34:09.462Z,23.53
2023-10-15T14:36:35.747Z,23.41
2023-10-15T14:39:02.095Z,23.38
2023-10-15T14:41:28.590Z,23.40
2023-10-15T14:43:55.261Z,23.39
2023-10-15T14:46:21.921Z,23.42
2023-10-15T14:48:48.225Z,23.34
2023-10-15T14:51:14.529Z,23.41
2023-10-15T14:53:40.829Z,23.39
2023-10-15T14:56:07.124Z,23.25
2023-10-15T14:58:33.481Z,23.38
2023-10-15T15:01:02.695Z,23.44
2023-10-15T15:03:29.161Z,23.44
2023-10-15T15:05:55.766Z,23.41
2023-10-15T15:08:22.281Z,23.47
2023-10-15T15:10:48.858Z,23.31
2023-10-15T15:13:15.358Z,23.40
2023-10-15T15:15:41.617Z,23.43
2023-10-15T15:18:08.143Z,23.22
2023-10-15T15:20:34.650Z,23.23
2023-10-15T15:23:01.142Z,23.22
2023-10-15T15:25:27.546Z,23.32
2023-10-15T15:27:54.035Z,23.24
2023-10-15T15:30:21.247Z,23.34
2023-10-15T15:32:47.785Z,23.23
2023-10-15T15:35:14.299Z,23.05
2023-10-15T15:37:40.590Z,23.08
2023-10-15T15:40:06.899Z,23.11
2023-10-15T15:42:33.166Z,23.20
2023-10-15T15:44:59.591Z,23.28
2023-10-15T15:47:25.918Z,23.21
2023-10-15T15:49:52.330Z,23.11
2023-10-15T15:52:18.622Z,23.08
2023-10-15T15:54:45.136Z,22.86
2023-10-15T15:57:11.407Z,23.01
2023-10-15T15:59:37.738Z,23.01
2023-10-15T16:02:04.361Z,23.12
2023-10-15T16:04:30.830Z,23.15
2023-10-15T16:06:57.353Z,23.02
2023-10-15T16:09:23.882Z,23.05
2023-10-15T16:11:50.318Z,23.03
2023-10-15T16:14:18.884Z,23.01
2023-10-15T16:16:45.277Z,22.89
2023-10-15T16:19:11.543Z,22.93
2023-10-15T16:21:37.930Z,22.94
2023-10-15T16:24:04.445Z,22.96
2023-10-15T16:26:30.727Z,23.02
2023-10-15T16:28:57.152Z,22.99
2023-10-15T16:31:23.673Z,22.97
2023-10-15T16:33:49.986Z,22.95
2023-10-15T16:36:16.309Z,22.96
2023-10-15T16:38:42.634Z,23.01
2023-10-15T16:41:09.064Z,22.90
2023-10-15T16:43:35.542Z,22.92
2023-10-15T16:46:02.096Z,23.00
2023-10-15T16:48:28.731Z,22.96
2023-10-15T16:51:00.746Z,22.87
2023-10-15T16:53:33.322Z,22.83
2023-10-15T16:55:59.932Z,22.93
2023-10-15T16:58:26.394Z,22.81
2023-10-15T17:00:52.841Z,22.84
2023-10-15T17:03:19.124Z,22.83
2023-10-15T17:05:45.578Z,22.82
2023-10-15T17:08:11.870Z,22.86
2023-10-15T17:10:38.276Z,22.71
2023-10-15T17:13:04.783Z,22.68
2023-10-15T17:15:31.807Z,22.76
2023-10-15T17:17:58.930Z,22.70
2023-10-15T17:20:25.448Z,22.66
2023-10-15T17:22:51.765Z,22.76
2023-10-15T17:25:18.013Z,22.70
2023-10-15T17:27:44.293Z,22.68
2023-10-15T17:32:39.742Z,22.79
2023-10-15T17:35:06.180Z,22.69
2023-10-15T17:37:32.575Z,22.62
2023-10-15T17:39:58.864Z,22.59
2023-10-15T17:42:25.167Z,22.54
2023-10-15T17:44:51.442Z,22.50
2023-10-15T17:47:18.025Z,22.50
2023-10-15T17:49:44.366Z,22.48
2023-10-15T17:52:10.683Z,22.50
2023-10-15T17:54:37.020Z,22.39
2023-10-15T17:57:04.162Z,22.38
2023-10-15T17:59:30.510Z,22.45
2023-10-15T18:01:56.895Z,22.47
2023-10-15T18:04:23.458Z,22.44
2023-10-15T18:06:49.909Z,22.46
2023-10-15T18:09:16.232Z,22.31
2023-10-15T18:11:42.793Z,22.41
2023-10-15T18:14:09.251Z,22.40
2023-10-15T18:16:35.775Z,22.34
2023-10-15T18:19:02.045Z,22.44
2023-10-15T18:21:28.731Z,22.30
2023-10-15T18:23:55.183Z,22.45
2023-10-15T18:26:21.469Z,21.95
2023-10-15T18:28:47.754Z,22.45
2023-10-15T18:31:14.242Z,22.30
2023-10-15T18:33:40.627Z,22.30
2023-10-15T18:36:07.200Z,22.40
2023-10-15T18:38:33.551Z,22.24
2023-10-15T18:41:00.007Z,22.33
2023-10-15T18:43:26.513Z,22.31
2023-10-15T18:45:52.821Z,22.31
2023-10-15T18:48:19.128Z,22.29
2023-10-15T18:50:45.405Z,22.39
2023-10-15T18:53:11.823Z,22.27
2023-10-15T18:55:38.448Z,22.19
2023-10-15T18:58:04.869Z,22.13
2023-10-15T19:00:31.236Z,22.23
2023-10-15T19:02:57.690Z,22.23
2023-10-15T19:05:24.257Z,22.17
2023-10-15T19:07:50.536Z,22.20
2023-10-15T19:10:16.833Z,22.08
2023-10-15T19:12:43.357Z,22.12
2023-10-15T19:15:09.695Z,22.17
2023-10-15T19:17:36.424Z,22.23
2023-10-15T19:20:02.694Z,22.20
2023-10-15T19:22:29.056Z,22.22
2023-10-15T19:24:55.597Z,22.20
2023-10-15T19:27:22.082Z,22.10
2023-10-15T19:29:48.585Z,22.15
2023-10-15T19:32:14.914Z,22.11
2023-10-15T19:34:41.267Z,22.08
2023-10-15T19:37:07.695Z,22.13
2023-10-15T19:39:34.214Z,22.02
2023-10-15T19:42:00.511Z,22.06
2023-10-15T19:44:26.957Z,21.94
2023-10-15T19:46:53.522Z,21.81
2023-10-15T19:49:22.490Z,21.92
2023-10-15T19:51:49.036Z,21.94
2023-10-15T19:54:15.455Z,21.90
2023-10-15T19:56:41.760Z,21.97
2023-10-15T19:59:08.189Z,22.04
2023-10-15T20:01:34.675Z,21.97
2023-10-15T20:04:07.275Z,21.89
2023-10-15T20:06:34.374Z,21.89
2023-10-15T20:09:00.691Z,21.96
2023-10-15T20:11:27.261Z,21.86
2023-10-15T20:13:55.388Z,21.88
2023-10-15T20:16:21.672Z,21.81
2023-10-15T20:18:48.098Z,21.71
2023-10-15T20:21:14.535Z,21.73
2023-10-15T20:23:40.860Z,21.71
2023-10-15T20:26:10.102Z,21.39
2023-10-15T20:28:37.596Z,21.67
2023-10-15T20:31:04.166Z,21.83
2023-10-15T20:33:33.123Z,21.83
2023-10-15T20:35:59.564Z,21.61
2023-10-15T20:38:27.212Z,21.76
2023-10-15T20:40:54.704Z,21.70
2023-10-15T20:43:20.992Z,21.65
2023-10-15T20:45:47.539Z,21.54
2023-10-15T20:48:14.287Z,21.56
2023-10-15T20:50:40.830Z,21.59
2023-10-15T20:53:07.348Z,21.53
2023-10-15T20:55:33.777Z,21.58
2023-10-15T20:58:00.233Z,21.64
2023-10-15T21:00:26.759Z,21.69
2023-10-15T21:02:53.089Z,21.58
2023-10-15T21:05:19.425Z,21.61
2023-10-15T21:07:45.741Z,21.65
2023-10-15T21:10:12.001Z,21.58
2023-10-15T21:12:38.478Z,21.73
2023-10-15T21:15:04.823Z,21.64
2023-10-15T21:17:31.137Z,21.68
2023-10-15T21:19:57.535Z,21.56
2023-10-15T21:22:23.841Z,21.34
2023-10-15T21:24:50.398Z,21.61
2023-10-15T21:27:16.984Z,21.54
2023-10-15T21:29:43.264Z,21.38
2023-10-15T21:32:09.658Z,21.51
2023-10-15T21:34:36.152Z,21.52
2023-10-15T21:37:02.419Z,21.38
2023-10-15T21:39:28.872Z,21.55
2023-10-15T21:41:55.362Z,21.50
2023-10-15T21:44:21.615Z,21.40
2023-10-15T21:46:47.890Z,21.41
2023-10-15T21:49:14.258Z,21.35
2023-10-15T21:51:40.602Z,21.44
2023-10-15T21:54:06.999Z,21.43
2023-10-15T21:56:33.309Z,21.45
2023-10-15T21:58:59.670Z,21.38
2023-10-15T22:01:26.187Z,21.35
2023-10-15T22:03:52.586Z,21.41
2023-10-15T22:06:18.901Z,21.41
2023-10-15T22:08:45.359Z,21.29
2023-10-15T22:11:11.613Z,21.22
2023-10-15T22:13:38.029Z,21.28
2023-10-15T22:16:04.496Z,21.32
2023-10-15T22:18:30.807Z,21.41
2023-10-15T22:20:57.222Z,21.31
2023-10-15T22:23:23.476Z,21.33
2023-10-15T22:25:49.777Z,21.33
2023-10-15T22:28:16.103Z,21.19
2023-10-15T22:30:42.441Z,21.23
2023-10-15T22:33:08.888Z,21.25
2023-10-15T22:35:35.303Z,21.19
2023-10-15T22:38:01.571Z,21.18
2023-10-15T22:40:27.993Z,21.24
2023-10-15T22:42:54.486Z,21.20
2023-10-15T22:45:21.114Z,21.11
2023-10-15T22:47:47.697Z,21.14
2023-10-15T22:50:14.052Z,21.24
2023-10-15T22:52:40.389Z,21.10
2023-10-15T22:55:06.837Z,21.17
2023-10-15T22:57:33.124Z,21.32
2023-10-15T22:59:59.539Z,21.41
2023-10-15T23:02:26.021Z,21.21
2023-10-15T23:04:52.267Z,21.20
2023-10-15T23:07:18.535Z,21.26
2023-10-15T23:09:44.981Z,21.11
2023-10-15T23:12:11.438Z,21.20
2023-10-15T23:14:37.754Z,21.10
2023-10-15T23:17:04.178Z,21.10
2023-10-15T23:19:30.652Z,21.26
2023-10-15T23:21:57.073Z,21.20
2023-10-15T23:24:23.441Z,21.12
2023-10-15T23:26:49.781Z,21.23
2023-10-15T23:29:16.163Z,21.21
2023-10-15T23:31:42.443Z,21.25
2023-10-15T23:34:08.961Z,21.16
2023-10-15T23:36:35.399Z,21.17
2023-10-15T23:39:01.741Z,21.14
2023-10-15T23:41:28.166Z,21.12
2023-10-15T23:43:54.626Z,21.15
2023-10-15T23:46:21.115Z,21.18
2023-10-15T23:48:47.382Z,21.03
2023-10-15T23:51:13.679Z,21.10
2023-10-15T23:53:40.018Z,21.16
2023-10-15T23:56:06.500Z,21.18
2023-10-15T23:58:32.753Z,20.99
